Time;durP1;ratioP1;P1;durP2;ratioP2;P2;SDS_P1;SDS_P2;PMS_P1;PMS_P2;Temp;Humidity;BMP_temperature;BMP_pressure;BME280_temperature;BME280_humidity;BME280_pressure;Samples;Min_cycle;Max_cycle;Signal;HPM_P1;HPM_P2
2022/08/01 00:01:34;;;;;;;2.88;1.88;;;23.00;62.60;;;;;;5019934;28;20265;-49
2022/08/01 00:03:59;;;;;;;4.25;2.10;;;23.00;62.60;;;;;;5036333;28;20108;-51
2022/08/01 00:06:25;;;;;;;2.97;1.92;;;23.00;62.70;;;;;;5038152;28;20029;-49
2022/08/01 00:08:50;;;;;;;2.85;2.60;;;23.00;62.70;;;;;;5038057;28;20104;-48
2022/08/01 00:11:16;;;;;;;2.53;2.33;;;23.00;62.70;;;;;;5039692;28;20635;-49
2022/08/01 00:13:41;;;;;;;2.72;2.05;;;23.00;62.80;;;;;;5039649;28;20128;-49
2022/08/01 00:16:07;;;;;;;3.10;2.20;;;23.00;62.80;;;;;;5037638;28;20029;-49
2022/08/01 00:18:33;;;;;;;4.10;2.78;;;23.00;62.80;;;;;;5036870;28;20048;-49
2022/08/01 00:20:58;;;;;;;4.38;2.30;;;23.00;62.80;;;;;;5056509;22;20040;-54
2022/08/01 00:23:24;;;;;;;2.90;2.42;;;23.00;62.80;;;;;;5020308;28;20160;-50
2022/08/01 00:25:49;;;;;;;2.33;2.00;;;23.00;63.00;;;;;;5039823;28;20051;-52
2022/08/01 00:28:16;;;;;;;2.53;2.33;;;23.00;62.90;;;;;;5037849;28;20025;-50
2022/08/01 00:30:41;;;;;;;2.05;1.85;;;23.00;63.00;;;;;;5038551;28;20807;-51
2022/08/01 00:33:07;;;;;;;2.28;1.90;;;23.00;62.80;;;;;;5039290;28;20025;-51
2022/08/01 00:35:32;;;;;;;4.18;2.40;;;23.00;62.70;;;;;;5038878;28;20040;-51
2022/08/01 00:37:58;;;;;;;3.15;2.30;;;23.00;63.00;;;;;;5038715;28;20215;-52
2022/08/01 00:40:23;;;;;;;4.05;2.08;;;23.00;62.90;;;;;;5019481;28;20438;-52
2022/08/01 00:42:49;;;;;;;2.58;2.38;;;23.00;63.00;;;;;;5019381;28;20030;-51
2022/08/01 00:45:14;;;;;;;2.53;2.13;;;23.00;62.80;;;;;;5019193;28;20029;-53
2022/08/01 00:47:40;;;;;;;3.97;2.30;;;23.00;62.70;;;;;;5018974;28;20703;-53
2022/08/01 00:50:06;;;;;;;6.10;2.28;;;23.00;62.80;;;;;;5017385;28;20018;-52
2022/08/01 00:52:32;;;;;;;2.88;2.58;;;23.00;62.80;;;;;;5018724;28;20040;-54
2022/08/01 00:54:57;;;;;;;2.38;2.17;;;23.00;62.80;;;;;;5033439;28;20758;-51
2022/08/01 00:57:23;;;;;;;2.90;2.30;;;23.00;62.80;;;;;;5039241;28;20029;-52
2022/08/01 00:59:48;;;;;;;2.83;2.20;;;23.00;63.00;;;;;;5038625;28;20057;-51
2022/08/01 01:02:14;;;;;;;2.40;1.98;;;23.00;62.80;;;;;;5038484;28;20063;-52
2022/08/01 01:04:39;;;;;;;2.65;1.92;;;23.00;63.00;;;;;;5039001;28;20403;-55
2022/08/01 01:07:27;;;;;;;2.30;2.10;;;23.00;63.00;;;;;;5038890;28;20868;-53
2022/08/01 01:10:04;;;;;;;2.17;2.05;;;23.00;62.80;;;;;;5037880;28;20562;-51
2022/08/01 01:12:52;;;;;;;2.97;2.67;;;23.00;62.80;;;;;;5037250;28;20120;-49
2022/08/01 01:15:36;;;;;;;2.78;2.50;;;23.00;62.90;;;;;;5037193;28;20445;-52
2022/08/01 01:18:05;;;;;;;3.08;2.20;;;23.00;62.90;;;;;;5037722;28;20029;-51
2022/08/01 01:20:55;;;;;;;2.30;2.10;;;23.00;62.80;;;;;;5036544;28;20052;-52
2022/08/01 01:23:39;;;;;;;2.00;1.90;;;23.00;62.70;;;;;;5019752;28;20032;-53
2022/08/01 01:26:29;;;;;;;2.55;2.35;;;23.00;62.80;;;;;;5038304;28;20040;-50
2022/08/01 01:29:16;;;;;;;3.30;2.25;;;23.00;62.70;;;;;;5029692;28;21125;-52
2022/08/01 01:31:47;;;;;;;2.20;2.00;;;23.00;62.80;;;;;;5038743;28;20053;-51
2022/08/01 01:34:14;;;;;;;2.28;2.17;;;23.00;62.80;;;;;;5038100;28;20040;-50
2022/08/01 01:36:40;;;;;;;4.03;1.85;;;23.00;62.80;;;;;;5038984;28;20029;-52
2022/08/01 01:39:06;;;;;;;2.53;2.33;;;23.00;62.80;;;;;;5036371;28;20036;-49
2022/08/01 01:41:32;;;;;;;3.97;2.28;;;23.00;62.90;;;;;;5037226;28;20030;-52
2022/08/01 01:43:57;;;;;;;3.55;2.35;;;23.00;62.70;;;;;;5037651;28;20040;-51
2022/08/01 01:46:26;;;;;;;4.53;2.00;;;23.00;62.80;;;;;;5036977;28;20410;-50
2022/08/01 01:48:52;;;;;;;2.53;2.17;;;23.00;62.80;;;;;;5037737;28;20029;-51
2022/08/01 01:51:17;;;;;;;4.95;2.17;;;23.00;62.70;;;;;;5021300;28;20032;-51
2022/08/01 01:53:43;;;;;;;3.40;2.00;;;23.00;62.70;;;;;;5021988;28;20026;-54
2022/08/01 01:56:08;;;;;;;2.97;2.42;;;23.00;62.60;;;;;;5021705;28;20437;-55
2022/08/01 01:58:34;;;;;;;2.60;2.40;;;23.00;62.60;;;;;;5021422;28;20041;-54
2022/08/01 02:01:00;;;;;;;4.18;2.65;;;23.00;62.70;;;;;;5021758;28;20088;-50
2022/08/01 02:03:26;;;;;;;2.88;2.20;;;23.00;62.70;;;;;;5022872;28;20021;-52
2022/08/01 02:05:51;;;;;;;2.33;2.05;;;23.00;62.60;;;;;;5022655;28;20079;-53
2022/08/01 02:08:17;;;;;;;2.75;2.15;;;23.00;62.70;;;;;;5021779;28;20029;-53
2022/08/01 02:11:17;;;;;;;3.83;2.40;;;23.00;62.60;;;;;;5021418;28;20863;-51
2022/08/01 02:13:30;;;;;;;2.70;2.35;;;23.00;62.60;;;;;;5021821;28;20034;-52
2022/08/01 02:15:55;;;;;;;2.50;2.30;;;23.00;62.50;;;;;;5032172;28;20033;-52
2022/08/01 02:18:21;;;;;;;4.18;2.75;;;23.00;62.60;;;;;;5041954;28;20037;-54
2022/08/01 02:20:46;;;;;;;2.80;2.15;;;23.00;62.60;;;;;;5041984;28;20040;-51
2022/08/01 02:23:12;;;;;;;2.30;2.10;;;23.00;62.70;;;;;;5041449;28;20427;-52
2022/08/01 02:25:49;;;;;;;2.65;1.85;;;23.00;62.60;;;;;;5041097;28;20040;-54
2022/08/01 02:28:22;;;;;;;2.60;2.40;;;23.00;62.60;;;;;;5040391;28;20110;-51
2022/08/01 02:30:48;;;;;;;2.88;2.47;;;23.00;62.70;;;;;;5040659;28;20087;-52
2022/08/01 02:33:18;;;;;;;2.63;2.40;;;23.00;62.60;;;;;;5040371;28;20025;-51
2022/08/01 02:35:45;;;;;;;3.33;3.05;;;23.00;62.70;;;;;;5040378;28;20044;-52
2022/08/01 02:38:11;;;;;;;2.85;2.20;;;23.00;62.60;;;;;;5040260;28;20195;-51
2022/08/01 02:40:38;;;;;;;2.80;2.47;;;23.00;62.60;;;;;;5039364;28;20134;-49
2022/08/01 02:43:03;;;;;;;3.50;2.45;;;23.00;62.90;;;;;;5029191;28;20037;-50
2022/08/01 02:45:29;;;;;;;4.30;2.53;;;23.00;62.60;;;;;;5020023;28;20026;-51
2022/08/01 02:47:57;;;;;;;2.20;2.00;;;23.00;62.60;;;;;;5021950;28;20506;-52
2022/08/01 02:50:23;;;;;;;3.15;2.47;;;23.00;62.70;;;;;;5021612;28;20041;-54
2022/08/01 02:52:49;;;;;;;2.47;2.28;;;23.00;62.60;;;;;;5019578;28;20029;-53
2022/08/01 02:55:14;;;;;;;2.72;2.53;;;23.00;62.80;;;;;;5020142;28;20048;-54
2022/08/01 02:57:41;;;;;;;3.08;2.60;;;23.00;62.70;;;;;;5019529;28;20461;-54
2022/08/01 03:00:07;;;;;;;2.78;2.42;;;23.00;62.60;;;;;;5019563;28;20044;-52
2022/08/01 03:02:33;;;;;;;2.47;2.28;;;22.90;62.70;;;;;;5021430;28;20120;-50
2022/08/01 03:04:58;;;;;;;2.20;2.00;;;22.90;62.60;;;;;;5020120;28;20793;-50
2022/08/01 03:07:24;;;;;;;2.55;2.35;;;22.90;62.50;;;;;;5035977;28;20766;-51
2022/08/01 03:09:49;;;;;;;4.07;2.67;;;23.00;62.50;;;;;;5039719;28;20025;-54
2022/08/01 03:12:19;;;;;;;2.70;2.40;;;23.00;62.70;;;;;;5024521;28;20079;-53
2022/08/01 03:14:46;;;;;;;3.20;2.53;;;22.90;62.60;;;;;;5019625;28;20128;-53
2022/08/01 03:17:11;;;;;;;3.25;2.97;;;23.00;62.60;;;;;;5019103;28;20104;-54
2022/08/01 03:19:38;;;;;;;2.50;2.30;;;23.00;62.60;;;;;;5020227;28;20033;-50
2022/08/01 03:22:06;;;;;;;3.83;2.60;;;23.00;62.60;;;;;;5020245;28;20703;-51
2022/08/01 03:24:31;;;;;;;3.13;2.85;;;22.90;62.50;;;;;;5021039;28;20037;-53
2022/08/01 03:26:57;;;;;;;3.35;2.92;;;23.00;62.60;;;;;;5018959;28;20037;-50
2022/08/01 03:29:25;;;;;;;3.17;2.90;;;22.90;62.50;;;;;;5002563;28;20053;-50
2022/08/01 03:31:51;;;;;;;3.10;2.85;;;23.00;62.80;;;;;;5019151;28;20033;-51
2022/08/01 03:34:16;;;;;;;4.00;2.95;;;22.90;62.80;;;;;;5035231;28;20025;-54
2022/08/01 03:37:03;;;;;;;2.97;2.67;;;22.90;62.80;;;;;;5025070;28;20033;-52
2022/08/01 03:39:31;;;;;;;2.80;2.60;;;22.90;62.60;;;;;;5038364;28;20083;-53
2022/08/01 03:41:59;;;;;;;2.70;2.50;;;22.90;62.60;;;;;;5039950;28;20029;-53
2022/08/01 03:44:26;;;;;;;3.47;3.17;;;22.90;62.50;;;;;;5039189;28;20532;-53
2022/08/01 03:46:57;;;;;;;3.65;3.35;;;23.00;62.70;;;;;;5038506;28;20050;-52
2022/08/01 03:49:25;;;;;;;3.85;2.47;;;22.90;62.70;;;;;;5022209;28;20090;-53
2022/08/01 03:51:51;;;;;;;2.97;2.65;;;22.90;62.60;;;;;;5038221;28;20033;-54
2022/08/01 03:54:27;;;;;;;3.17;2.88;;;22.90;62.50;;;;;;5039078;28;20223;-52
2022/08/01 03:56:52;;;;;;;2.72;2.53;;;22.90;62.60;;;;;;5042051;28;20132;-50
2022/08/01 03:59:18;;;;;;;4.68;2.90;;;22.90;62.70;;;;;;5038733;28;20108;-52
2022/08/01 04:01:45;;;;;;;3.42;3.03;;;22.90;62.60;;;;;;5037979;28;20448;-49
2022/08/01 04:04:10;;;;;;;3.50;3.20;;;22.90;62.70;;;;;;5036726;28;20029;-53
2022/08/01 04:06:39;;;;;;;2.97;2.78;;;22.90;62.70;;;;;;5048740;28;20052;-51
2022/08/01 04:09:07;;;;;;;3.53;3.22;;;22.90;62.50;;;;;;5019617;28;20053;-50
2022/08/01 04:11:32;;;;;;;3.25;2.95;;;22.90;62.80;;;;;;5017159;28;20033;-50
2022/08/01 04:13:58;;;;;;;4.00;3.20;;;22.90;62.60;;;;;;5018370;28;20037;-50
2022/08/01 04:16:23;;;;;;;2.90;2.67;;;22.90;62.80;;;;;;5019627;28;20033;-51
2022/08/01 04:18:49;;;;;;;3.00;2.63;;;22.90;62.80;;;;;;5018824;28;20499;-51
2022/08/01 04:21:14;;;;;;;3.35;3.00;;;22.90;62.50;;;;;;5019401;28;20044;-53
2022/08/01 04:23:41;;;;;;;3.53;3.22;;;22.90;62.40;;;;;;5018212;28;20036;-49
2022/08/01 04:26:06;;;;;;;4.72;2.90;;;22.90;62.50;;;;;;5018008;28;20056;-50
2022/08/01 04:28:32;;;;;;;3.15;2.90;;;22.90;62.60;;;;;;5017227;28;20033;-49
2022/08/01 04:30:58;;;;;;;3.00;2.70;;;22.90;62.60;;;;;;5018063;28;20040;-51
2022/08/01 04:33:24;;;;;;;3.65;2.67;;;22.90;62.80;;;;;;5017690;28;20083;-53
2022/08/01 04:35:49;;;;;;;4.53;2.70;;;22.90;62.70;;;;;;5019404;28;20049;-49
2022/08/01 04:38:17;;;;;;;3.03;2.72;;;22.90;62.80;;;;;;5017863;28;20502;-52
2022/08/01 04:40:45;;;;;;;4.20;3.53;;;22.90;62.70;;;;;;5017354;28;20044;-51
2022/08/01 04:43:11;;;;;;;2.95;2.63;;;22.90;62.70;;;;;;5017824;28;20108;-51
2022/08/01 04:45:36;;;;;;;3.10;2.83;;;22.90;62.80;;;;;;5019356;28;20117;-50
2022/08/01 04:48:02;;;;;;;3.15;2.85;;;22.90;62.70;;;;;;5017599;28;20508;-49
2022/08/01 04:50:28;;;;;;;5.53;3.38;;;22.90;62.60;;;;;;5017712;28;20045;-54
2022/08/01 04:52:54;;;;;;;3.50;2.78;;;22.90;62.80;;;;;;5017641;28;20037;-53
2022/08/01 04:55:19;;;;;;;3.38;3.08;;;22.90;62.70;;;;;;5019400;28;20272;-50
2022/08/01 04:57:46;;;;;;;2.92;2.60;;;22.90;62.80;;;;;;5019613;28;20223;-49
2022/08/01 05:00:12;;;;;;;2.70;2.50;;;22.90;62.60;;;;;;5017543;28;20040;-50
2022/08/01 05:02:37;;;;;;;4.40;2.90;;;22.90;62.80;;;;;;5018554;28;20037;-51
2022/08/01 05:05:05;;;;;;;3.28;2.92;;;22.90;62.80;;;;;;5017869;28;20032;-53
2022/08/01 05:07:31;;;;;;;2.50;2.30;;;22.90;62.80;;;;;;5018889;28;20038;-52
2022/08/01 05:09:57;;;;;;;2.50;2.30;;;22.90;62.70;;;;;;5018578;28;20040;-52
2022/08/01 05:12:22;;;;;;;3.50;2.80;;;22.90;62.70;;;;;;5019312;28;20525;-52
2022/08/01 05:14:48;;;;;;;2.95;2.75;;;22.90;62.60;;;;;;5018756;28;20120;-52
2022/08/01 05:17:13;;;;;;;3.15;2.80;;;22.90;62.80;;;;;;5018627;28;20113;-52
2022/08/01 05:19:39;;;;;;;2.80;2.53;;;22.90;62.70;;;;;;5018462;28;20037;-53
2022/08/01 05:22:06;;;;;;;2.88;2.55;;;22.90;62.60;;;;;;5017359;28;20033;-50
2022/08/01 05:24:32;;;;;;;2.83;2.50;;;22.90;62.60;;;;;;5017122;28;20033;-54
2022/08/01 05:26:57;;;;;;;2.63;2.42;;;22.90;62.50;;;;;;5021484;28;20710;-50
2022/08/01 05:29:23;;;;;;;3.22;2.88;;;22.90;62.50;;;;;;5022416;28;20034;-53
2022/08/01 05:31:49;;;;;;;2.90;2.70;;;22.90;62.40;;;;;;5021234;28;20033;-49
2022/08/01 05:34:14;;;;;;;2.50;2.30;;;22.90;62.60;;;;;;5034211;28;20037;-51
2022/08/01 05:36:40;;;;;;;3.85;2.45;;;22.90;62.50;;;;;;5043013;28;20683;-51
2022/08/01 05:39:05;;;;;;;2.85;2.65;;;22.90;62.50;;;;;;5041837;28;20113;-50
2022/08/01 05:41:31;;;;;;;2.63;2.38;;;22.90;62.40;;;;;;5040796;28;20040;-49
2022/08/01 05:43:56;;;;;;;2.83;2.53;;;22.90;62.30;;;;;;5042984;28;20724;-44
2022/08/01 05:46:22;;;;;;;4.03;2.88;;;22.90;62.10;;;;;;5042870;28;20069;-51
2022/08/01 05:48:47;;;;;;;2.75;2.55;;;22.90;62.20;;;;;;5041859;28;20052;-51
2022/08/01 05:51:13;;;;;;;3.50;2.38;;;22.90;62.40;;;;;;5042722;28;20485;-52
2022/08/01 05:53:38;;;;;;;3.50;2.75;;;22.90;62.60;;;;;;5041900;28;20037;-51
2022/08/01 05:56:04;;;;;;;2.60;2.40;;;22.90;62.40;;;;;;5041365;28;20110;-50
2022/08/01 05:58:30;;;;;;;2.60;2.40;;;22.90;62.40;;;;;;5041614;28;20562;-49
2022/08/01 06:00:55;;;;;;;2.72;2.47;;;22.90;62.40;;;;;;5042620;28;20052;-52
2022/08/01 06:03:21;;;;;;;3.53;2.75;;;22.90;62.20;;;;;;5042039;28;20033;-49
2022/08/01 06:05:46;;;;;;;2.50;2.30;;;22.90;62.40;;;;;;5041998;28;20044;-49
2022/08/01 06:08:12;;;;;;;3.83;2.53;;;22.90;62.40;;;;;;5042055;28;20041;-51
2022/08/01 06:10:37;;;;;;;3.25;2.10;;;22.90;62.40;;;;;;5041933;28;20068;-50
2022/08/01 06:13:03;;;;;;;2.75;2.55;;;22.90;62.30;;;;;;5041417;28;20024;-49
2022/08/01 06:15:30;;;;;;;2.45;2.25;;;22.90;62.50;;;;;;5040011;28;20033;-53
2022/08/01 06:17:55;;;;;;;3.83;2.47;;;22.90;62.30;;;;;;5041732;28;20405;-50
2022/08/01 06:20:21;;;;;;;3.25;2.63;;;22.90;63.00;;;;;;5041568;28;20036;-51
2022/08/01 06:22:46;;;;;;;4.22;2.28;;;22.90;62.50;;;;;;5042154;28;20036;-51
2022/08/01 06:25:12;;;;;;;3.00;2.50;;;22.90;62.60;;;;;;5042832;28;20033;-51
2022/08/01 06:27:37;;;;;;;2.67;2.47;;;22.90;62.50;;;;;;5042023;28;20037;-52
2022/08/01 06:30:07;;;;;;;2.88;2.60;;;22.90;62.60;;;;;;5041557;28;20784;-52
2022/08/01 06:32:32;;;;;;;2.70;2.50;;;22.90;62.70;;;;;;5042565;28;20390;-52
2022/08/01 06:34:58;;;;;;;3.50;2.53;;;22.90;62.70;;;;;;5041149;28;20032;-52
2022/08/01 06:37:27;;;;;;;3.53;2.60;;;22.90;63.10;;;;;;5041601;28;20041;-52
2022/08/01 06:39:53;;;;;;;2.42;2.22;;;22.80;63.30;;;;;;5039940;28;20060;-49
2022/08/01 06:42:19;;;;;;;3.20;2.90;;;22.80;63.20;;;;;;5041344;28;20059;-49
2022/08/01 06:44:44;;;;;;;2.75;2.55;;;22.90;62.80;;;;;;5041872;28;20056;-50
2022/08/01 06:47:10;;;;;;;3.28;2.55;;;22.90;63.90;;;;;;5042315;28;20489;-51
2022/08/01 06:49:35;;;;;;;2.85;2.50;;;22.90;63.20;;;;;;5040091;28;20082;-51
2022/08/01 06:52:01;;;;;;;2.78;2.42;;;22.90;63.00;;;;;;5042098;28;20029;-50
2022/08/01 06:54:26;;;;;;;2.28;2.08;;;22.90;63.60;;;;;;5042594;28;20017;-49
2022/08/01 06:56:52;;;;;;;2.63;2.42;;;22.90;63.00;;;;;;5042610;28;20082;-49
2022/08/01 06:59:17;;;;;;;3.75;2.10;;;22.90;62.90;;;;;;5041882;28;20033;-53
2022/08/01 07:01:43;;;;;;;2.40;2.20;;;22.90;63.70;;;;;;5042527;28;20036;-52
2022/08/01 07:04:08;;;;;;;5.07;2.40;;;22.90;63.70;;;;;;5044616;28;20049;-51
2022/08/01 07:06:34;;;;;;;3.97;2.10;;;22.90;63.30;;;;;;5042968;28;20030;-50
2022/08/01 07:09:01;;;;;;;4.90;2.28;;;22.80;63.20;;;;;;5043340;28;20032;-52
2022/08/01 07:11:26;;;;;;;4.10;2.65;;;22.80;64.40;;;;;;5042769;28;20429;-51
2022/08/01 07:13:52;;;;;;;5.15;2.30;;;22.90;63.80;;;;;;5040574;28;20048;-52
2022/08/01 07:16:18;;;;;;;8.45;2.30;;;22.90;63.70;;;;;;5041477;28;20041;-50
2022/08/01 07:18:43;;;;;;;12.25;2.83;;;22.90;64.00;;;;;;5038907;28;20274;-49
2022/08/01 07:21:09;;;;;;;12.27;2.92;;;22.90;64.70;;;;;;5040697;28;20205;-50
2022/08/01 07:23:34;;;;;;;13.73;2.60;;;22.90;64.20;;;;;;5038803;28;20111;-49
2022/08/01 07:26:01;;;;;;;9.48;2.60;;;22.80;64.80;;;;;;5040310;28;20443;-51
2022/08/01 07:28:27;;;;;;;7.63;2.45;;;22.90;66.10;;;;;;5039714;28;20033;-52
2022/08/01 07:30:53;;;;;;;5.05;2.22;;;22.90;65.70;;;;;;5039684;28;20529;-50
2022/08/01 07:33:18;;;;;;;4.28;1.58;;;22.80;66.30;;;;;;5040072;28;20029;-52
2022/08/01 07:35:44;;;;;;;7.55;2.17;;;22.90;66.60;;;;;;5040912;28;20040;-50
2022/08/01 07:38:09;;;;;;;6.30;1.83;;;22.80;66.50;;;;;;5040726;28;20025;-50
2022/08/01 07:40:35;;;;;;;6.05;1.73;;;22.90;66.60;;;;;;5039335;28;20037;-49
2022/08/01 07:43:00;;;;;;;3.20;1.58;;;22.80;67.00;;;;;;5039688;28;20504;-50
2022/08/01 07:45:26;;;;;;;6.25;1.65;;;22.80;66.90;;;;;;5040749;28;20049;-49
2022/08/01 07:47:52;;;;;;;2.65;1.52;;;22.80;67.50;;;;;;5039777;28;20025;-50
2022/08/01 07:50:18;;;;;;;3.53;1.60;;;22.90;67.50;;;;;;5039122;28;20033;-49
2022/08/01 07:52:43;;;;;;;2.20;1.55;;;22.80;67.50;;;;;;5039845;28;20037;-49
2022/08/01 07:55:09;;;;;;;3.42;1.40;;;22.90;67.90;;;;;;5040543;28;20139;-50
2022/08/01 07:57:35;;;;;;;2.47;1.27;;;22.90;67.90;;;;;;5040006;28;20040;-51
2022/08/01 08:00:01;;;;;;;2.90;1.23;;;22.80;67.40;;;;;;5039847;28;20021;-52
2022/08/01 08:02:26;;;;;;;2.08;1.55;;;22.80;67.60;;;;;;5040589;28;20025;-53
2022/08/01 08:04:52;;;;;;;1.27;1.17;;;22.90;67.70;;;;;;5040413;28;20749;-51
2022/08/01 08:07:17;;;;;;;1.52;1.13;;;22.90;67.70;;;;;;5040572;28;20065;-52
2022/08/01 08:09:43;;;;;;;2.60;1.58;;;22.90;68.20;;;;;;5039571;28;20033;-48
2022/08/01 08:12:09;;;;;;;1.45;1.35;;;22.80;67.60;;;;;;5039430;28;20025;-50
2022/08/01 08:14:34;;;;;;;1.33;1.23;;;22.90;67.30;;;;;;5021646;28;20040;-48
2022/08/01 08:17:00;;;;;;;2.22;1.20;;;22.90;67.80;;;;;;5039245;28;20124;-52
2022/08/01 08:19:25;;;;;;;2.63;1.30;;;22.90;67.30;;;;;;5039164;28;20029;-50
2022/08/01 08:21:51;;;;;;;2.58;1.58;;;22.90;67.60;;;;;;5038881;28;20044;-50
2022/08/01 08:24:19;;;;;;;1.67;1.27;;;22.90;68.50;;;;;;5039723;28;20176;-51
2022/08/01 08:26:45;;;;;;;3.53;1.75;;;22.90;68.40;;;;;;5039194;28;20025;-51
2022/08/01 08:29:11;;;;;;;2.45;1.58;;;22.90;68.70;;;;;;5039532;28;20021;-54
2022/08/01 08:31:36;;;;;;;3.65;2.20;;;22.90;67.90;;;;;;5039481;28;20535;-52
2022/08/01 08:34:02;;;;;;;4.30;1.88;;;23.00;67.80;;;;;;5039656;28;20021;-51
2022/08/01 08:36:28;;;;;;;9.43;2.05;;;23.00;68.20;;;;;;5039489;28;20041;-52
2022/08/01 08:38:54;;;;;;;9.30;2.28;;;23.00;68.30;;;;;;5040159;28;20025;-49
2022/08/01 08:41:20;;;;;;;7.55;2.30;;;23.00;68.80;;;;;;5039201;28;20041;-49
2022/08/01 08:43:45;;;;;;;5.63;2.13;;;23.00;68.20;;;;;;5038279;28;20033;-49
2022/08/01 08:46:12;;;;;;;7.85;2.72;;;23.00;68.20;;;;;;5037731;28;20204;-51
2022/08/01 08:48:40;;;;;;;5.53;2.25;;;23.00;67.70;;;;;;5037089;28;20033;-55
2022/08/01 08:51:05;;;;;;;4.75;1.63;;;23.00;67.60;;;;;;5039469;28;20036;-51
2022/08/01 08:53:31;;;;;;;6.50;1.92;;;23.00;67.70;;;;;;5037481;28;20394;-49
2022/08/01 08:55:56;;;;;;;10.75;1.98;;;23.00;67.40;;;;;;5038416;28;20025;-50
2022/08/01 08:58:22;;;;;;;10.00;2.33;;;23.00;66.80;;;;;;5037672;28;20557;-53
2022/08/01 09:00:47;;;;;;;3.35;1.40;;;23.00;67.00;;;;;;5036972;28;20033;-52
2022/08/01 09:03:13;;;;;;;3.97;1.40;;;23.00;67.20;;;;;;5038765;28;20049;-51
2022/08/01 09:05:38;;;;;;;4.03;1.48;;;23.10;66.90;;;;;;5037444;28;20047;-53
2022/08/01 09:08:07;;;;;;;5.00;1.58;;;23.00;67.10;;;;;;5037471;28;20029;-51
2022/08/01 09:10:33;;;;;;;4.78;1.60;;;23.10;67.40;;;;;;5037950;28;20033;-54
2022/08/01 09:13:10;;;;;;;3.10;1.25;;;23.10;67.20;;;;;;5039294;28;20224;-50
2022/08/01 09:15:39;;;;;;;5.70;1.85;;;23.10;67.00;;;;;;5019250;28;20077;-48
2022/08/01 09:18:05;;;;;;;5.82;1.58;;;23.10;66.70;;;;;;5017443;28;20026;-53
2022/08/01 09:20:30;;;;;;;6.50;1.45;;;23.10;67.10;;;;;;4998654;28;20589;-51
2022/08/01 09:22:56;;;;;;;6.25;1.45;;;23.10;66.30;;;;;;5017634;28;20053;-52
2022/08/01 09:25:21;;;;;;;10.25;1.65;;;23.00;67.10;;;;;;5015683;28;20029;-52
2022/08/01 09:27:47;;;;;;;1.63;1.25;;;23.10;66.30;;;;;;5026026;28;20506;-52
2022/08/01 09:30:14;;;;;;;4.15;1.20;;;23.10;66.40;;;;;;5035592;28;20029;-49
2022/08/01 09:33:00;;;;;;;4.90;1.35;;;23.00;66.70;;;;;;5034906;28;20056;-53
2022/08/01 09:35:34;;;;;;;;;;;23.00;66.00;;;;;;5038304;28;20041;-50
2022/08/01 09:38:16;;;;;;;3.55;1.08;;;23.00;66.50;;;;;;5038108;28;20383;-48
2022/08/01 09:40:55;;;;;;;2.30;1.05;;;23.10;66.60;;;;;;5036931;28;20059;-52
2022/08/01 09:43:22;;;;;;;5.20;0.95;;;23.10;66.50;;;;;;5037957;28;20107;-50
2022/08/01 09:45:48;;;;;;;2.97;1.23;;;23.10;66.00;;;;;;5038172;28;20337;-51
2022/08/01 09:48:15;;;;;;;4.35;1.13;;;23.10;65.90;;;;;;5038063;28;20637;-49
2022/08/01 09:50:42;;;;;;;2.97;1.42;;;23.10;65.90;;;;;;5046599;28;20040;-49
2022/08/01 09:53:08;;;;;;;3.60;1.23;;;23.10;65.40;;;;;;5050310;28;20067;-51
2022/08/01 09:55:34;;;;;;;1.35;1.02;;;23.10;67.10;;;;;;5037325;28;20103;-49
2022/08/01 09:58:00;;;;;;;3.53;1.08;;;23.10;66.40;;;;;;5037864;28;20029;-52
2022/08/01 10:00:26;;;;;;;2.20;1.00;;;23.20;66.50;;;;;;5037643;28;20435;-51
2022/08/01 10:02:51;;;;;;;1.05;0.95;;;23.10;67.20;;;;;;5038047;28;20033;-49
2022/08/01 10:05:17;;;;;;;1.52;0.90;;;23.10;66.00;;;;;;5070134;28;20444;-51
2022/08/01 10:07:56;;;;;;;1.30;0.85;;;23.10;65.60;;;;;;5037991;28;20029;-52
2022/08/01 10:10:22;;;;;;;2.78;1.13;;;23.10;66.30;;;;;;5037375;28;20037;-52
2022/08/01 10:12:47;;;;;;;1.38;0.80;;;23.10;66.50;;;;;;5041082;28;20033;-51
2022/08/01 10:15:15;;;;;;;1.92;0.88;;;23.10;66.50;;;;;;5073988;28;20033;-52
2022/08/01 10:17:40;;;;;;;0.80;0.80;;;23.20;66.90;;;;;;5040001;28;20070;-51
2022/08/01 10:20:07;;;;;;;1.38;1.05;;;23.20;66.80;;;;;;5040264;28;20032;-52
2022/08/01 10:22:34;;;;;;;0.88;0.82;;;23.20;66.60;;;;;;5040623;28;20158;-50
2022/08/01 10:25:02;;;;;;;2.30;1.15;;;23.20;66.40;;;;;;5040216;28;20049;-52
2022/08/01 10:27:27;;;;;;;0.60;0.60;;;23.20;66.90;;;;;;5041975;28;20421;-50
2022/08/01 10:30:03;;;;;;;2.05;0.60;;;23.20;65.90;;;;;;5038865;28;20044;-49
2022/08/01 10:32:30;;;;;;;0.70;0.70;;;23.20;65.90;;;;;;5040720;28;20029;-52
2022/08/01 10:34:55;;;;;;;2.05;0.70;;;23.20;65.90;;;;;;5042215;28;20036;-52
2022/08/01 10:37:21;;;;;;;1.77;0.60;;;23.20;65.50;;;;;;5041626;28;20029;-52
2022/08/01 10:39:46;;;;;;;0.95;0.70;;;23.20;65.60;;;;;;5039239;28;20057;-52
2022/08/01 10:42:12;;;;;;;1.10;0.93;;;23.20;65.50;;;;;;5039308;28;20056;-52
2022/08/01 10:44:38;;;;;;;2.58;0.90;;;23.20;65.40;;;;;;5041244;28;20658;-50
2022/08/01 10:47:11;;;;;;;0.82;0.60;;;23.20;65.90;;;;;;5038714;28;20585;-54
2022/08/01 10:49:47;;;;;;;1.00;0.70;;;23.20;65.50;;;;;;5040666;28;20033;-55
2022/08/01 10:52:18;;;;;;;0.90;0.80;;;23.20;65.60;;;;;;5039764;28;20025;-54
2022/08/01 10:54:44;;;;;;;0.88;0.50;;;23.20;65.50;;;;;;5040354;28;20029;-51
2022/08/01 10:57:11;;;;;;;1.90;0.90;;;23.20;65.20;;;;;;5041180;28;20032;-54
2022/08/01 10:59:47;;;;;;;0.90;0.90;;;23.20;65.20;;;;;;5040422;28;20059;-54
2022/08/01 11:02:12;;;;;;;0.95;0.77;;;23.20;64.80;;;;;;5039701;28;20688;-51
2022/08/01 11:05:02;;;;;;;3.28;0.50;;;23.20;65.60;;;;;;5039445;28;20025;-49
2022/08/01 11:07:39;;;;;;;0.70;0.68;;;23.20;64.50;;;;;;5039847;28;20520;-51
2022/08/01 11:10:09;;;;;;;1.52;0.70;;;23.20;64.70;;;;;;5039227;28;20048;-53
2022/08/01 11:12:38;;;;;;;0.82;0.82;;;23.20;65.20;;;;;;5023520;28;20056;-53
2022/08/01 11:15:04;;;;;;;1.02;0.80;;;23.20;65.20;;;;;;5040977;28;20033;-49
2022/08/01 11:17:44;;;;;;;0.95;0.95;;;23.20;65.00;;;;;;5039951;28;20582;-48
2022/08/01 11:20:13;;;;;;;0.75;0.75;;;23.20;65.20;;;;;;5039927;28;20716;-52
2022/08/01 11:23:05;;;;;;;1.23;0.65;;;23.20;64.90;;;;;;5039725;28;20033;-51
2022/08/01 11:25:36;;;;;;;1.35;0.90;;;23.20;64.30;;;;;;5022425;28;20090;-49
2022/08/01 11:28:15;;;;;;;0.50;0.50;;;23.20;64.80;;;;;;5041256;28;20103;-49
2022/08/01 11:30:44;;;;;;;2.95;0.73;;;23.20;64.80;;;;;;5040725;28;20033;-50
2022/08/01 11:33:10;;;;;;;1.20;0.57;;;23.20;64.60;;;;;;5039999;28;20029;-51
2022/08/01 11:35:36;;;;;;;1.48;0.70;;;23.20;64.70;;;;;;5039702;28;20033;-53
2022/08/01 11:38:28;;;;;;;0.77;0.52;;;23.20;64.80;;;;;;5041314;28;20397;-51
2022/08/01 11:41:19;;;;;;;0.88;0.88;;;23.20;64.50;;;;;;5035847;28;20100;-51
2022/08/01 11:44:04;;;;;;;2.95;0.75;;;23.20;64.90;;;;;;5052927;28;20049;-54
2022/08/01 11:46:48;;;;;;;3.00;0.70;;;23.20;64.70;;;;;;5040242;28;20044;-54
2022/08/01 11:49:32;;;;;;;1.50;0.90;;;23.20;65.00;;;;;;5037997;28;20035;-54
2022/08/01 11:52:11;;;;;;;4.45;0.90;;;23.20;65.10;;;;;;5039960;28;20124;-51
2022/08/01 11:54:37;;;;;;;2.30;0.82;;;23.20;64.90;;;;;;5039381;28;20029;-53
2022/08/01 11:57:05;;;;;;;1.42;0.77;;;23.20;64.80;;;;;;5055000;28;20783;-50
2022/08/01 11:59:39;;;;;;;0.90;0.60;;;23.20;65.20;;;;;;5039135;28;20049;-50
2022/08/01 12:02:04;;;;;;;2.03;0.55;;;23.20;65.10;;;;;;5038846;28;20049;-52
2022/08/01 12:04:50;;;;;;;1.33;0.75;;;23.20;65.00;;;;;;5038579;28;20135;-51
2022/08/01 12:07:16;;;;;;;1.48;0.60;;;23.20;65.10;;;;;;5043339;28;20032;-51
2022/08/01 12:09:41;;;;;;;1.60;0.60;;;23.30;65.00;;;;;;5039063;28;20033;-51
2022/08/01 12:12:07;;;;;;;1.13;0.60;;;23.30;65.00;;;;;;5039785;28;20021;-52
2022/08/01 12:14:32;;;;;;;1.05;0.80;;;23.30;65.40;;;;;;5038368;28;20540;-55
2022/08/01 12:16:58;;;;;;;1.45;0.70;;;23.30;65.40;;;;;;5039445;28;20282;-55
2022/08/01 12:19:24;;;;;;;1.88;0.68;;;23.30;65.30;;;;;;5048101;22;20029;-52
2022/08/01 12:22:08;;;;;;;2.03;0.60;;;23.30;65.40;;;;;;5074004;28;20038;-51
2022/08/01 12:24:35;;;;;;;1.27;0.70;;;23.30;65.30;;;;;;5097606;28;20031;-52
2022/08/01 12:27:00;;;;;;;1.25;0.75;;;23.30;65.30;;;;;;5078535;28;20024;-52
2022/08/01 12:29:36;;;;;;;3.08;0.70;;;23.30;65.60;;;;;;5077054;28;20024;-51
2022/08/01 12:32:02;;;;;;;2.35;1.00;;;23.40;65.50;;;;;;5083766;28;20355;-53
2022/08/01 12:34:28;;;;;;;2.92;0.60;;;23.40;65.40;;;;;;5077768;28;20381;-50
2022/08/01 12:36:58;;;;;;;1.83;0.88;;;23.40;65.80;;;;;;5079146;28;20032;-52
2022/08/01 12:39:30;;;;;;;4.57;0.70;;;23.40;65.40;;;;;;5083785;28;20423;-50
2022/08/01 12:41:55;;;;;;;3.97;1.15;;;23.40;65.50;;;;;;5090939;28;20119;-51
2022/08/01 12:44:21;;;;;;;2.70;0.82;;;23.40;65.00;;;;;;5078361;28;20027;-53
2022/08/01 12:46:47;;;;;;;2.58;0.60;;;23.40;65.00;;;;;;5090906;28;20032;-50
2022/08/01 12:49:12;;;;;;;1.13;0.65;;;23.40;64.70;;;;;;5082359;28;20027;-51
2022/08/01 12:51:38;;;;;;;5.05;0.60;;;23.40;64.80;;;;;;5084180;28;20063;-52